Tatum, Mississippi
Current Conditions -  °F | °C
As of 10:53 AM on Friday 21 Nov 2014 (Local Time) from KMCB Reporting Station
Clear Clear  
Wind Chill: 19°   Ceiling: Unl
Heat Index: 19°   Visibility: 10mi
Dew Point:   Wind: 12mph
Humidity: 48%   Direction: 150°SSE
Pressure: 30.31"   Gusts: NA
Location:  31.1819°N, 90.9008°W
Report Text: KMCB 211653Z AUTO 15010KT 10SM CLR 19/08 A3031 RMK AO2 SLP260 T01890078
Loading
Personal Weather Stations






























Interactive Weather Map New forecast layout! Learn more

10-Day Weather Forecast

Advertisements
Track Severe Weather on mobile